createdAt,value
2019-03-11T00:00:39.593Z,83.55
2019-03-11T00:01:39.559Z,83.76
2019-03-11T00:02:39.550Z,83.48
2019-03-11T00:03:39.542Z,83.97
2019-03-11T00:04:46.647Z,83.34
2019-03-11T00:05:39.557Z,83.65
2019-03-11T00:06:39.502Z,84.17
2019-03-11T00:07:39.488Z,84.28
2019-03-11T00:08:39.491Z,84.48
2019-03-11T00:09:39.479Z,85.52
2019-03-11T00:10:39.453Z,85.00
2019-03-11T00:11:39.507Z,85.83
2019-03-11T00:12:39.526Z,85.63
2019-03-11T00:14:50.268Z,85.73
2019-03-11T00:15:50.206Z,86.04
2019-03-11T00:16:50.189Z,85.31
2019-03-11T00:17:50.194Z,84.38
2019-03-11T00:18:50.247Z,84.59
2019-03-11T00:19:50.163Z,85.42
2019-03-11T00:20:50.270Z,85.31
2019-03-11T00:21:50.156Z,84.90
2019-03-11T00:22:50.204Z,84.17
2019-03-11T00:23:50.125Z,84.38
2019-03-11T00:24:50.208Z,85.42
2019-03-11T00:25:50.970Z,84.80
2019-03-11T00:26:50.094Z,83.93
2019-03-11T00:27:50.055Z,84.59
2019-03-11T00:28:50.118Z,84.80
2019-03-11T00:29:50.151Z,83.83
2019-03-11T00:30:50.047Z,83.62
2019-03-11T00:31:50.051Z,81.85
2019-03-11T00:32:50.063Z,82.06
2019-03-11T00:33:50.023Z,81.96
2019-03-11T00:34:49.994Z,81.44
2019-03-11T00:35:50.083Z,81.54
2019-03-11T00:36:50.014Z,81.44
2019-03-11T00:37:49.952Z,81.23
2019-03-11T00:38:49.945Z,79.99
2019-03-11T00:39:49.934Z,79.58
2019-03-11T00:40:49.936Z,79.99
2019-03-11T00:41:49.996Z,78.61
2019-03-11T00:42:49.916Z,78.40
2019-03-11T00:43:49.899Z,78.92
2019-03-11T00:44:49.897Z,78.71
2019-03-11T00:45:49.854Z,78.09
2019-03-11T00:46:49.866Z,78.09
2019-03-11T00:48:01.134Z,78.71
2019-03-11T00:48:50.863Z,79.13
2019-03-11T00:49:50.481Z,79.02
2019-03-11T00:50:49.828Z,79.02
2019-03-11T00:51:49.791Z,79.54
2019-03-11T00:52:49.865Z,78.30
2019-03-11T00:53:49.800Z,79.64
2019-03-11T00:54:49.756Z,80.05
2019-03-11T00:55:49.771Z,79.64
2019-03-11T00:56:49.835Z,80.16
2019-03-11T00:57:49.718Z,80.09
2019-03-11T00:58:49.737Z,81.02
2019-03-11T00:59:49.760Z,81.13
2019-03-11T01:00:49.714Z,81.44
2019-03-11T01:01:49.686Z,81.65
2019-03-11T01:02:49.806Z,81.96
2019-03-11T01:03:49.770Z,81.96
2019-03-11T01:04:49.639Z,82.20
2019-03-11T01:05:49.776Z,83.10
2019-03-11T01:06:49.641Z,82.31
2019-03-11T01:07:49.613Z,82.89
2019-03-11T01:08:49.619Z,82.31
2019-03-11T01:09:49.611Z,82.31
2019-03-11T01:10:49.635Z,82.37
2019-03-11T01:11:49.570Z,82.51
2019-03-11T01:12:49.682Z,82.51
2019-03-11T01:13:49.625Z,82.93
2019-03-11T01:14:49.603Z,83.31
2019-03-11T01:15:49.503Z,83.00
2019-03-11T01:16:49.574Z,83.65
2019-03-11T01:17:49.605Z,82.82
2019-03-11T01:18:49.516Z,82.93
2019-03-11T01:19:49.495Z,83.14
2019-03-11T01:20:49.492Z,83.55
2019-03-11T01:21:49.471Z,83.55
2019-03-11T01:22:49.488Z,83.55
2019-03-11T01:23:49.506Z,83.14
2019-03-11T01:24:49.428Z,83.03
2019-03-11T01:25:49.541Z,83.34
2019-03-11T01:26:49.424Z,83.07
2019-03-11T01:27:49.415Z,84.31
2019-03-11T01:28:49.406Z,83.97
2019-03-11T01:29:49.470Z,84.11
2019-03-11T01:30:49.444Z,84.00
2019-03-11T01:31:49.382Z,84.11
2019-03-11T01:32:49.439Z,84.00
2019-03-11T01:33:49.359Z,83.48
2019-03-11T01:34:49.319Z,83.59
2019-03-11T01:35:49.328Z,83.28
2019-03-11T01:36:49.388Z,83.69
2019-03-11T01:37:49.310Z,83.90
2019-03-11T01:38:49.310Z,84.11
2019-03-11T01:39:49.285Z,84.21
2019-03-11T01:40:49.269Z,84.42
2019-03-11T01:41:49.314Z,85.46
2019-03-11T01:42:51.586Z,84.31
2019-03-11T01:43:49.239Z,84.21
2019-03-11T01:44:49.243Z,83.80
2019-03-11T01:45:49.299Z,84.00
2019-03-11T01:46:49.300Z,84.11
2019-03-11T01:47:49.183Z,83.48
2019-03-11T01:48:49.160Z,83.69
2019-03-11T01:49:49.173Z,83.48
2019-03-11T01:50:49.131Z,83.07
2019-03-11T01:51:49.249Z,83.28
2019-03-11T01:52:49.152Z,84.52
2019-03-11T01:53:49.112Z,84.00
2019-03-11T01:54:49.204Z,83.80
2019-03-11T01:55:49.090Z,84.21
2019-03-11T01:56:49.162Z,84.11
2019-03-11T01:57:49.100Z,83.17
2019-03-11T01:58:49.059Z,83.38
2019-03-11T01:59:49.069Z,84.05
2019-03-11T02:00:49.043Z,84.00
2019-03-11T02:01:49.021Z,82.97
2019-03-11T02:02:49.093Z,83.11
2019-03-11T02:03:49.287Z,83.59
2019-03-11T02:04:49.015Z,82.97
2019-03-11T02:05:48.964Z,83.59
2019-03-11T02:06:49.072Z,82.86
2019-03-11T02:07:49.012Z,83.48
2019-03-11T02:08:48.936Z,84.21
2019-03-11T02:09:49.090Z,83.28
2019-03-11T02:10:48.916Z,83.59
2019-03-11T02:11:48.903Z,83.69
2019-03-11T02:12:49.006Z,81.82
2019-03-11T02:13:48.892Z,81.93
2019-03-11T02:14:48.970Z,82.45
2019-03-11T02:15:48.854Z,82.97
2019-03-11T02:16:48.860Z,82.03
2019-03-11T02:17:48.974Z,81.82
2019-03-11T02:18:48.856Z,82.14
2019-03-11T02:19:48.813Z,82.49
2019-03-11T02:20:48.903Z,82.59
2019-03-11T02:21:48.804Z,82.34
2019-03-11T02:22:49.377Z,81.93
2019-03-11T02:23:48.795Z,82.45
2019-03-11T02:24:48.849Z,82.03
2019-03-11T02:25:48.906Z,82.49
2019-03-11T02:26:48.861Z,82.49
2019-03-11T02:27:48.759Z,82.03
2019-03-11T02:28:48.786Z,82.76
2019-03-11T02:29:48.722Z,82.45
2019-03-11T02:30:49.381Z,82.97
2019-03-11T02:31:48.790Z,83.28
2019-03-11T02:32:48.731Z,83.53
2019-03-11T02:33:48.728Z,82.70
2019-03-11T02:34:48.723Z,82.76
2019-03-11T02:35:48.717Z,82.03
2019-03-11T02:36:48.704Z,81.82
2019-03-11T02:37:48.633Z,82.39
2019-03-11T02:38:48.724Z,82.55
2019-03-11T02:39:48.621Z,83.22
2019-03-11T02:40:48.606Z,82.80
2019-03-11T02:41:48.651Z,83.28
2019-03-11T02:42:48.570Z,83.28
2019-03-11T02:43:48.563Z,82.18
2019-03-11T02:44:48.568Z,82.34
2019-03-11T02:45:48.591Z,83.11
2019-03-11T02:46:48.783Z,82.70
2019-03-11T02:47:48.511Z,82.34
2019-03-11T02:48:48.493Z,82.97
2019-03-11T02:49:48.626Z,82.90
2019-03-11T02:50:48.553Z,82.80
2019-03-11T02:51:48.565Z,83.17
2019-03-11T02:52:48.512Z,83.22
2019-03-11T02:53:48.469Z,83.11
2019-03-11T02:54:48.430Z,83.42
2019-03-11T02:55:51.083Z,83.11
2019-03-11T02:56:48.424Z,83.42
2019-03-11T02:57:48.515Z,83.42
2019-03-11T02:58:48.417Z,83.42
2019-03-11T02:59:48.402Z,84.15
2019-03-11T03:00:48.390Z,84.25
2019-03-11T03:01:48.375Z,84.25
2019-03-11T03:02:48.360Z,83.94
2019-03-11T03:03:48.398Z,84.05
2019-03-11T03:04:48.366Z,83.63
2019-03-11T03:05:48.479Z,83.73
2019-03-11T03:06:48.401Z,83.63
2019-03-11T03:07:48.330Z,83.53
2019-03-11T03:08:48.331Z,84.05
2019-03-11T03:09:48.338Z,83.11
2019-03-11T03:10:48.269Z,83.22
2019-03-11T03:11:48.268Z,83.32
2019-03-11T03:12:48.247Z,83.53
2019-03-11T03:13:48.313Z,83.22
2019-03-11T03:14:48.271Z,83.53
2019-03-11T03:15:48.307Z,83.53
2019-03-11T03:16:48.197Z,83.01
2019-03-11T03:17:48.167Z,84.05
2019-03-11T03:18:48.235Z,84.05
2019-03-11T03:19:48.181Z,83.42
2019-03-11T03:20:48.164Z,83.98
2019-03-11T03:21:48.319Z,84.08
2019-03-11T03:22:48.141Z,84.39
2019-03-11T03:23:48.151Z,84.60
2019-03-11T03:24:48.128Z,84.60
2019-03-11T03:25:48.085Z,85.53
2019-03-11T03:26:48.151Z,84.70
2019-03-11T03:27:48.321Z,84.50
2019-03-11T03:28:48.156Z,84.50
2019-03-11T03:29:48.050Z,84.19
2019-03-11T03:30:48.079Z,84.08
2019-03-11T03:31:48.043Z,83.67
2019-03-11T03:32:48.083Z,83.67
2019-03-11T03:33:48.103Z,83.36
2019-03-11T03:34:48.062Z,83.22
2019-03-11T03:35:48.031Z,83.53
2019-03-11T03:36:47.987Z,83.53
2019-03-11T03:37:48.037Z,83.73
2019-03-11T03:38:48.903Z,84.39
2019-03-11T03:39:47.966Z,84.29
2019-03-11T03:40:47.924Z,84.19
2019-03-11T03:41:47.951Z,83.98
2019-03-11T03:42:48.216Z,83.98
2019-03-11T03:43:47.981Z,84.19
2019-03-11T03:44:47.948Z,84.08
2019-03-11T03:45:48.031Z,84.39
2019-03-11T03:46:47.871Z,84.29
2019-03-11T03:47:47.936Z,85.22
2019-03-11T03:48:48.134Z,84.70
2019-03-11T03:49:47.979Z,84.60
2019-03-11T03:50:47.839Z,84.60
2019-03-11T03:51:47.811Z,84.91
2019-03-11T03:52:47.825Z,85.43
2019-03-11T03:53:47.807Z,85.22
2019-03-11T03:54:47.817Z,85.33
2019-03-11T03:55:47.840Z,84.60
2019-03-11T03:56:47.818Z,84.60
2019-03-11T03:57:47.829Z,85.02
2019-03-11T03:58:47.754Z,84.70
2019-03-11T03:59:47.723Z,84.19
2019-03-11T04:00:47.709Z,84.08
2019-03-11T04:01:47.854Z,84.08
2019-03-11T04:02:47.699Z,83.46
2019-03-11T04:03:47.820Z,83.53
2019-03-11T04:04:47.729Z,83.46
2019-03-11T04:05:47.684Z,84.36
2019-03-11T04:06:47.687Z,83.73
2019-03-11T04:07:47.632Z,83.94
2019-03-11T04:08:47.758Z,83.73
2019-03-11T04:09:47.609Z,85.53
2019-03-11T04:10:47.613Z,86.36
2019-03-11T04:11:47.600Z,85.53
2019-03-11T04:12:47.612Z,86.41
2019-03-11T04:13:47.589Z,86.30
2019-03-11T04:14:47.686Z,87.03
2019-03-11T04:15:47.598Z,87.38
2019-03-11T04:16:47.544Z,87.38
2019-03-11T04:17:47.553Z,88.42
2019-03-11T04:18:47.520Z,89.04
2019-03-11T04:19:47.508Z,88.94
2019-03-11T04:20:47.528Z,89.00
2019-03-11T04:21:47.567Z,89.98
2019-03-11T04:22:47.596Z,90.50
2019-03-11T04:23:47.462Z,89.87
2019-03-11T04:24:47.462Z,88.00
2019-03-11T04:25:47.556Z,87.90
2019-03-11T04:26:47.441Z,86.82
2019-03-11T04:27:47.509Z,87.24
2019-03-11T04:28:47.551Z,87.65
2019-03-11T04:29:47.445Z,88.17
2019-03-11T04:30:47.386Z,87.76
2019-03-11T04:31:47.390Z,88.48
2019-03-11T04:32:47.406Z,87.86
2019-03-11T04:33:47.421Z,88.79
2019-03-11T04:34:47.376Z,88.62
2019-03-11T04:35:47.335Z,87.13
2019-03-11T04:36:47.338Z,87.07
2019-03-11T04:37:47.293Z,85.93
2019-03-11T04:38:47.304Z,86.30
2019-03-11T04:39:47.339Z,85.88
2019-03-11T04:40:47.310Z,85.68
2019-03-11T04:41:47.894Z,85.57
2019-03-11T04:42:47.274Z,85.68
2019-03-11T04:43:47.300Z,86.09
2019-03-11T04:44:47.438Z,85.82
2019-03-11T04:45:47.271Z,85.57
2019-03-11T04:46:47.293Z,85.57
2019-03-11T04:47:47.210Z,84.95
2019-03-11T04:48:47.202Z,85.26
2019-03-11T04:49:47.183Z,84.12
2019-03-11T04:50:47.192Z,84.22
2019-03-11T04:51:47.234Z,83.70
2019-03-11T04:52:47.267Z,83.39
2019-03-11T04:53:47.146Z,82.98
2019-03-11T04:54:47.122Z,82.98
2019-03-11T04:55:47.112Z,83.50
2019-03-11T04:56:47.142Z,82.70
2019-03-11T04:57:47.210Z,82.70
2019-03-11T04:58:47.121Z,82.70
2019-03-11T04:59:47.103Z,83.22
2019-03-11T05:00:47.171Z,83.01
2019-03-11T05:01:47.079Z,83.64
2019-03-11T05:02:47.073Z,83.53
2019-03-11T05:03:47.088Z,83.74
2019-03-11T05:04:47.042Z,83.22
2019-03-11T05:05:47.030Z,83.33
2019-03-11T05:06:47.009Z,83.12
2019-03-11T05:07:46.993Z,83.53
2019-03-11T05:08:47.120Z,83.43
2019-03-11T05:09:47.052Z,82.70
2019-03-11T05:10:47.014Z,82.91
2019-03-11T05:11:47.023Z,82.81
2019-03-11T05:12:46.954Z,83.22
2019-03-11T05:13:47.037Z,83.22
2019-03-11T05:14:46.996Z,83.43
2019-03-11T05:15:46.922Z,83.64
2019-03-11T05:16:46.910Z,83.12
2019-03-11T05:17:48.540Z,83.43
2019-03-11T05:18:46.898Z,84.16
2019-03-11T05:19:46.910Z,83.43
2019-03-11T05:20:46.857Z,83.74
2019-03-11T05:21:46.839Z,83.64
2019-03-11T05:22:46.830Z,83.95
2019-03-11T05:23:46.839Z,84.27
2019-03-11T05:24:46.825Z,83.95
2019-03-11T05:25:46.879Z,84.27
2019-03-11T05:26:46.893Z,84.78
2019-03-11T05:27:46.918Z,84.47
2019-03-11T05:28:49.251Z,83.95
2019-03-11T05:29:46.750Z,84.05
2019-03-11T05:30:46.905Z,84.27
2019-03-11T05:31:46.810Z,83.84
2019-03-11T05:32:46.758Z,83.74
2019-03-11T05:33:46.720Z,83.74
2019-03-11T05:34:46.710Z,83.29
2019-03-11T05:35:46.719Z,83.01
2019-03-11T05:36:46.690Z,83.18
2019-03-11T05:37:46.885Z,83.08
2019-03-11T05:38:46.660Z,83.60
2019-03-11T05:39:46.635Z,83.70
2019-03-11T05:40:47.402Z,83.22
2019-03-11T05:41:46.779Z,82.98
2019-03-11T05:42:46.653Z,83.29
2019-03-11T05:43:46.593Z,83.08
2019-03-11T05:44:46.601Z,83.29
2019-03-11T05:45:46.589Z,83.70
2019-03-11T05:46:46.569Z,84.47
2019-03-11T05:47:46.600Z,84.27
2019-03-11T05:48:46.551Z,85.20
2019-03-11T05:49:46.563Z,86.49
2019-03-11T05:50:46.564Z,87.38
2019-03-11T05:51:46.514Z,88.67
2019-03-11T05:52:46.505Z,88.15
2019-03-11T05:53:46.594Z,89.08
2019-03-11T05:54:46.515Z,89.29
2019-03-11T05:55:46.513Z,89.81
2019-03-11T05:56:46.450Z,90.06
2019-03-11T05:57:46.448Z,90.58
2019-03-11T05:58:46.441Z,90.69
2019-03-11T05:59:46.493Z,90.62
2019-03-11T06:00:46.476Z,91.56
2019-03-11T06:01:46.413Z,91.77
2019-03-11T06:02:46.398Z,92.29
2019-03-11T06:03:46.409Z,91.81
2019-03-11T06:04:56.483Z,92.08
2019-03-11T06:05:46.421Z,92.33
2019-03-11T06:06:46.333Z,92.74
2019-03-11T06:07:46.353Z,93.37
2019-03-11T06:08:46.387Z,93.16
2019-03-11T06:09:46.318Z,93.93
2019-03-11T06:10:46.299Z,94.14
2019-03-11T06:11:46.297Z,94.66
2019-03-11T06:12:46.330Z,94.56
2019-03-11T06:13:46.294Z,95.18
2019-03-11T06:14:46.288Z,94.56
2019-03-11T06:15:46.240Z,94.76
2019-03-11T06:16:46.301Z,94.45
2019-03-11T06:17:46.319Z,94.76
2019-03-11T06:18:46.227Z,95.35
2019-03-11T06:19:46.259Z,94.98
2019-03-11T06:20:46.290Z,95.60
2019-03-11T06:21:46.179Z,95.45
2019-03-11T06:22:46.185Z,95.45
2019-03-11T06:23:46.178Z,96.22
2019-03-11T06:24:46.162Z,95.70
2019-03-11T06:25:46.198Z,96.12
2019-03-11T06:26:46.120Z,95.50
2019-03-11T06:27:46.131Z,95.08
2019-03-11T06:28:46.148Z,94.76
2019-03-11T06:29:46.097Z,94.49
2019-03-11T06:30:46.068Z,94.60
2019-03-11T06:31:46.133Z,95.23
2019-03-11T06:32:46.061Z,95.75
2019-03-11T06:33:46.127Z,95.33
2019-03-11T06:34:46.051Z,95.68
2019-03-11T06:35:46.047Z,95.48
2019-03-11T06:36:46.108Z,95.58
2019-03-11T06:37:46.016Z,96.00
2019-03-11T06:38:46.011Z,96.04
2019-03-11T06:39:46.007Z,96.00
2019-03-11T06:40:46.251Z,96.88
2019-03-11T06:41:45.969Z,97.14
2019-03-11T06:42:46.043Z,96.98
2019-03-11T06:43:45.958Z,97.25
2019-03-11T06:44:45.953Z,97.67
2019-03-11T06:45:45.920Z,97.35
2019-03-11T06:46:46.214Z,97.35
2019-03-11T06:47:45.919Z,97.25
2019-03-11T06:48:45.948Z,97.35
2019-03-11T06:49:45.886Z,97.67
2019-03-11T06:50:45.904Z,97.25
2019-03-11T06:51:45.850Z,97.67
2019-03-11T06:52:45.888Z,97.67
2019-03-11T06:53:45.873Z,97.67
2019-03-11T06:54:45.817Z,97.46
2019-03-11T06:55:45.895Z,97.62
2019-03-11T06:56:45.814Z,96.94
2019-03-11T06:57:45.912Z,97.56
2019-03-11T06:58:45.862Z,97.35
2019-03-11T06:59:45.792Z,97.20
2019-03-11T07:00:45.866Z,97.52
2019-03-11T07:01:45.823Z,96.89
2019-03-11T07:02:45.740Z,97.41
2019-03-11T07:03:45.752Z,97.31
2019-03-11T07:04:45.717Z,96.64
2019-03-11T07:05:45.709Z,96.64
2019-03-11T07:06:45.736Z,96.33
2019-03-11T07:07:45.819Z,95.91
2019-03-11T07:08:45.673Z,96.22
2019-03-11T07:09:45.663Z,96.01
2019-03-11T07:10:45.652Z,96.12
2019-03-11T07:11:45.712Z,96.12
2019-03-11T07:12:45.629Z,95.70
2019-03-11T07:13:45.715Z,95.39
2019-03-11T07:14:45.637Z,95.39
2019-03-11T07:15:45.599Z,95.35
2019-03-11T07:16:46.423Z,95.03
2019-03-11T07:17:45.581Z,95.39
2019-03-11T07:18:45.588Z,94.76
2019-03-11T07:19:45.625Z,95.50
2019-03-11T07:20:45.641Z,94.56
2019-03-11T07:21:45.527Z,94.35
2019-03-11T07:22:45.518Z,94.87
2019-03-11T07:23:45.514Z,94.76
2019-03-11T07:24:45.543Z,94.66
2019-03-11T07:25:45.510Z,94.56
2019-03-11T07:26:45.491Z,94.62
2019-03-11T07:27:45.479Z,94.82
2019-03-11T07:28:45.550Z,93.52
2019-03-11T07:29:45.575Z,94.45
2019-03-11T07:30:45.437Z,93.62
2019-03-11T07:31:45.413Z,93.62
2019-03-11T07:32:45.462Z,94.04
2019-03-11T07:33:45.458Z,94.31
2019-03-11T07:34:45.392Z,94.72
2019-03-11T07:35:45.376Z,94.45
2019-03-11T07:36:45.416Z,94.87
2019-03-11T07:37:45.535Z,94.62
2019-03-11T07:38:45.438Z,94.62
2019-03-11T07:39:45.374Z,94.45
2019-03-11T07:40:45.445Z,94.31
2019-03-11T07:41:45.329Z,93.89
2019-03-11T07:42:45.357Z,94.66
2019-03-11T07:43:45.343Z,94.31
2019-03-11T07:44:45.287Z,94.51
2019-03-11T07:45:45.271Z,94.16
2019-03-11T07:46:45.713Z,93.99
2019-03-11T07:47:45.323Z,93.95
2019-03-11T07:48:45.240Z,93.58
2019-03-11T07:49:45.233Z,93.12
2019-03-11T07:50:45.200Z,93.43
2019-03-11T07:51:45.209Z,93.12
2019-03-11T07:52:45.257Z,92.35
2019-03-11T07:53:45.405Z,92.97
2019-03-11T07:54:45.177Z,92.97
2019-03-11T07:55:45.140Z,92.39
2019-03-11T07:56:45.170Z,92.66
2019-03-11T07:57:45.132Z,91.93
2019-03-11T07:58:45.197Z,91.83
2019-03-11T07:59:45.132Z,92.24
2019-03-11T08:00:53.326Z,92.24
2019-03-11T08:01:46.269Z,91.83
2019-03-11T08:02:45.128Z,92.14
2019-03-11T08:03:45.091Z,92.03
2019-03-11T08:04:45.064Z,91.52
2019-03-11T08:05:45.066Z,91.27
2019-03-11T08:06:45.046Z,91.89
2019-03-11T08:07:45.038Z,91.93
2019-03-11T08:08:45.067Z,91.68
2019-03-11T08:09:45.057Z,91.58
2019-03-11T08:10:45.046Z,91.83
2019-03-11T08:11:45.034Z,91.47
2019-03-11T08:12:45.027Z,91.37
2019-03-11T08:13:44.978Z,92.41
2019-03-11T08:14:45.062Z,91.99
2019-03-11T08:15:44.949Z,91.47
2019-03-11T08:16:44.929Z,91.47
2019-03-11T08:17:44.917Z,91.68
2019-03-11T08:18:44.969Z,91.89
2019-03-11T08:19:44.912Z,91.62
2019-03-11T08:20:44.891Z,91.41
2019-03-11T08:21:44.883Z,91.27
2019-03-11T08:22:44.873Z,92.45
2019-03-11T08:23:44.858Z,92.66
2019-03-11T08:24:44.887Z,92.45
2019-03-11T08:25:44.844Z,92.51
2019-03-11T08:26:44.819Z,92.35
2019-03-11T08:27:44.879Z,91.72
2019-03-11T08:28:44.799Z,92.55
2019-03-11T08:29:44.800Z,92.35
2019-03-11T08:30:44.773Z,92.24
2019-03-11T08:31:44.767Z,93.45
2019-03-11T08:32:44.775Z,93.87
2019-03-11T08:33:44.888Z,92.82
2019-03-11T08:34:44.751Z,92.51
2019-03-11T08:35:44.760Z,91.99
2019-03-11T08:36:45.433Z,91.89
2019-03-11T08:37:44.709Z,91.89
2019-03-11T08:38:44.721Z,91.68
2019-03-11T08:39:44.683Z,90.75
2019-03-11T08:40:44.726Z,91.58
2019-03-11T08:41:44.715Z,91.06
2019-03-11T08:42:44.673Z,89.87
2019-03-11T08:43:44.619Z,90.08
2019-03-11T08:44:44.620Z,89.98
2019-03-11T08:45:44.605Z,90.39
2019-03-11T08:46:44.843Z,89.42
2019-03-11T08:47:44.645Z,89.73
2019-03-11T08:48:44.596Z,90.04
2019-03-11T08:49:44.576Z,89.69
2019-03-11T08:50:45.434Z,89.06
2019-03-11T08:51:44.548Z,88.23
2019-03-11T08:52:44.641Z,88.13
2019-03-11T08:53:44.582Z,88.02
2019-03-11T08:54:44.529Z,88.65
2019-03-11T08:55:44.536Z,88.65
2019-03-11T08:56:44.508Z,89.06
2019-03-11T08:57:44.500Z,88.96
2019-03-11T08:58:44.507Z,89.00
2019-03-11T08:59:44.455Z,88.96
2019-03-11T09:00:44.536Z,89.06
2019-03-11T09:01:44.467Z,89.37
2019-03-11T09:02:44.458Z,89.31
2019-03-11T09:03:44.424Z,88.59
2019-03-11T09:04:44.408Z,88.90
2019-03-11T09:05:44.402Z,89.31
2019-03-11T09:06:44.444Z,89.62
2019-03-11T09:07:44.374Z,89.31
2019-03-11T09:08:44.580Z,89.31
2019-03-11T09:09:44.359Z,89.11
2019-03-11T09:10:44.357Z,88.44
2019-03-11T09:11:44.394Z,88.23
2019-03-11T09:12:44.354Z,89.06
2019-03-11T09:13:44.312Z,88.02
2019-03-11T09:14:44.300Z,87.92
2019-03-11T09:15:44.290Z,88.34
2019-03-11T09:16:44.939Z,88.23
2019-03-11T09:17:44.364Z,88.30
2019-03-11T09:18:44.263Z,87.40
2019-03-11T09:19:44.355Z,88.54
2019-03-11T09:20:44.252Z,87.57
2019-03-11T09:21:44.219Z,86.99
2019-03-11T09:22:44.275Z,87.30
2019-03-11T09:23:44.276Z,87.05
2019-03-11T09:24:44.309Z,86.85
2019-03-11T09:25:44.172Z,86.64
2019-03-11T09:26:44.166Z,86.33
2019-03-11T09:27:44.153Z,86.43
2019-03-11T09:28:44.142Z,87.26
2019-03-11T09:29:44.301Z,87.37
2019-03-11T09:30:44.130Z,86.33
2019-03-11T09:31:44.126Z,86.54
2019-03-11T09:32:44.944Z,86.74
2019-03-11T09:33:44.093Z,86.91
2019-03-11T09:34:44.083Z,85.56
2019-03-11T09:35:44.199Z,86.08
2019-03-11T09:36:44.053Z,86.33
2019-03-11T09:37:44.664Z,87.22
2019-03-11T09:38:44.046Z,87.22
2019-03-11T09:39:44.022Z,86.29
2019-03-11T09:40:44.023Z,85.35
2019-03-11T09:41:44.077Z,85.56
2019-03-11T09:42:43.996Z,85.56
2019-03-11T09:43:43.991Z,86.29
2019-03-11T09:44:44.065Z,86.29
2019-03-11T09:45:43.964Z,85.56
2019-03-11T09:46:43.973Z,85.66
2019-03-11T09:47:44.000Z,86.29
2019-03-11T09:48:44.990Z,85.14
2019-03-11T09:49:43.921Z,85.42
2019-03-11T09:50:44.446Z,85.94
2019-03-11T09:51:44.072Z,85.63
2019-03-11T09:52:43.939Z,86.21
2019-03-11T09:53:43.925Z,85.00
2019-03-11T09:54:43.905Z,84.38
2019-03-11T09:55:43.859Z,83.65
2019-03-11T09:56:43.964Z,83.97
2019-03-11T09:57:43.958Z,85.42
2019-03-11T09:58:43.808Z,84.59
2019-03-11T09:59:44.515Z,85.21
2019-03-11T10:00:43.790Z,84.38
2019-03-11T10:01:43.796Z,84.38
2019-03-11T10:02:52.139Z,85.21
2019-03-11T10:03:44.811Z,85.48
2019-03-11T10:04:43.823Z,85.79
2019-03-11T10:05:43.750Z,84.96
2019-03-11T10:06:43.744Z,83.16
2019-03-11T10:07:43.763Z,83.06
2019-03-11T10:08:43.754Z,82.34
2019-03-11T10:09:43.707Z,81.57
2019-03-11T10:10:43.704Z,81.68
2019-03-11T10:11:43.723Z,81.88
2019-03-11T10:12:43.663Z,82.26
2019-03-11T10:13:43.659Z,81.54
2019-03-11T10:14:43.629Z,81.09
2019-03-11T10:15:43.633Z,81.29
2019-03-11T10:16:43.655Z,80.98
2019-03-11T10:17:43.619Z,80.81
2019-03-11T10:18:43.653Z,81.60
2019-03-11T10:19:43.591Z,81.19
2019-03-11T10:20:43.588Z,81.39
2019-03-11T10:21:43.560Z,81.70
2019-03-11T10:22:43.677Z,82.74
2019-03-11T10:23:43.538Z,81.98
2019-03-11T10:24:43.551Z,79.94
2019-03-11T10:25:43.551Z,81.35
2019-03-11T10:26:43.512Z,80.01
2019-03-11T10:27:43.561Z,80.22
2019-03-11T10:28:43.498Z,77.29
2019-03-11T10:29:43.494Z,80.08
2019-03-11T10:30:43.537Z,79.05
2019-03-11T10:31:43.461Z,80.08
2019-03-11T10:32:43.497Z,80.76
2019-03-11T10:33:43.439Z,77.56
2019-03-11T10:34:43.568Z,75.81
2019-03-11T10:35:43.431Z,76.94
2019-03-11T10:36:43.461Z,76.70
2019-03-11T10:37:43.400Z,75.81
2019-03-11T10:38:43.391Z,74.15
2019-03-11T10:39:43.416Z,75.19
2019-03-11T10:40:43.357Z,75.15
2019-03-11T10:41:43.357Z,76.32
2019-03-11T10:42:43.479Z,75.46
2019-03-11T10:43:43.327Z,72.57
2019-03-11T10:44:43.307Z,72.99
2019-03-11T10:45:43.328Z,71.23
2019-03-11T10:46:44.986Z,71.44
2019-03-11T10:47:43.290Z,71.02
2019-03-11T10:48:43.437Z,68.85
2019-03-11T10:49:43.259Z,69.17
2019-03-11T10:50:43.264Z,70.30
2019-03-11T10:51:43.245Z,68.82
2019-03-11T10:52:43.222Z,70.27
2019-03-11T10:53:43.227Z,70.57
2019-03-11T10:54:43.282Z,70.89
2019-03-11T10:55:43.285Z,69.54
2019-03-11T10:56:43.188Z,66.86
2019-03-11T10:57:43.181Z,68.17
2019-03-11T10:58:43.380Z,68.48
2019-03-11T10:59:43.191Z,67.97
2019-03-11T11:00:43.136Z,65.62
2019-03-11T11:01:43.133Z,68.07
2019-03-11T11:02:43.179Z,67.24
2019-03-11T11:03:43.150Z,67.35
2019-03-11T11:04:43.145Z,66.94
2019-03-11T11:05:43.130Z,67.24
2019-03-11T11:06:43.084Z,66.94
2019-03-11T11:07:43.061Z,67.14
2019-03-11T11:08:43.041Z,66.94
2019-03-11T11:09:43.099Z,67.14
2019-03-11T11:10:43.027Z,67.24
2019-03-11T11:11:43.009Z,65.59
2019-03-11T11:12:43.016Z,66.31
2019-03-11T11:13:43.020Z,66.73
2019-03-11T11:14:43.042Z,66.73
2019-03-11T11:15:43.025Z,68.27
2019-03-11T11:16:42.939Z,68.59
2019-03-11T11:17:43.175Z,67.14
2019-03-11T11:18:42.935Z,65.52
2019-03-11T11:19:42.967Z,65.49
2019-03-11T11:20:42.994Z,67.27
2019-03-11T11:21:42.911Z,66.14
2019-03-11T11:22:42.898Z,66.01
2019-03-11T11:23:42.930Z,65.39
2019-03-11T11:24:42.891Z,65.94
2019-03-11T11:25:42.925Z,66.55
2019-03-11T11:26:42.830Z,66.35
2019-03-11T11:27:42.820Z,66.55
2019-03-11T11:28:42.825Z,67.38
2019-03-11T11:29:42.820Z,67.07
2019-03-11T11:30:42.790Z,66.97
2019-03-11T11:31:42.904Z,68.00
2019-03-11T11:32:42.770Z,69.65
2019-03-11T11:33:42.863Z,69.34
2019-03-11T11:34:42.834Z,68.30
2019-03-11T11:35:42.805Z,68.21
2019-03-11T11:36:42.717Z,68.96
2019-03-11T11:37:42.766Z,69.68
2019-03-11T11:38:42.708Z,69.27
2019-03-11T11:39:42.779Z,69.58
2019-03-11T11:40:42.699Z,71.64
2019-03-11T11:41:42.780Z,69.58
2019-03-11T11:42:42.649Z,70.20
2019-03-11T11:43:42.665Z,70.06
2019-03-11T11:44:42.682Z,69.85
2019-03-11T11:45:42.669Z,69.75
2019-03-11T11:46:42.626Z,69.44
2019-03-11T11:47:42.601Z,69.00
2019-03-11T11:48:42.617Z,67.03
2019-03-11T11:49:42.579Z,66.52
2019-03-11T11:50:42.565Z,65.39
2019-03-11T11:51:42.559Z,65.56
2019-03-11T11:52:42.555Z,64.43
2019-03-11T11:53:42.593Z,64.09
2019-03-11T11:54:42.625Z,63.68
2019-03-11T11:55:42.513Z,63.68
2019-03-11T11:56:42.496Z,63.99
2019-03-11T11:57:42.685Z,63.13
2019-03-11T11:58:42.477Z,63.65
2019-03-11T11:59:53.316Z,63.75
2019-03-11T12:00:43.460Z,62.52
2019-03-11T12:01:42.440Z,62.00
2019-03-11T12:02:42.449Z,62.21
2019-03-11T12:03:42.446Z,62.41
2019-03-11T12:04:42.416Z,61.80
2019-03-11T12:05:42.455Z,61.18
2019-03-11T12:06:42.392Z,61.69
2019-03-11T12:07:42.455Z,61.49
2019-03-11T12:08:42.391Z,60.97
2019-03-11T12:09:42.370Z,61.90
2019-03-11T12:10:42.444Z,62.00
2019-03-11T12:11:42.330Z,61.18
2019-03-11T12:12:42.347Z,60.87
2019-03-11T12:13:49.536Z,61.61
2019-03-11T12:14:42.323Z,61.38
2019-03-11T12:15:42.312Z,59.97
2019-03-11T12:16:42.302Z,59.84
2019-03-11T12:17:42.265Z,60.77
2019-03-11T12:18:42.260Z,60.15
2019-03-11T12:19:42.266Z,59.33
2019-03-11T12:20:42.236Z,59.53
2019-03-11T12:21:42.339Z,59.77
2019-03-11T12:22:42.888Z,59.97
2019-03-11T12:23:46.220Z,60.38
2019-03-11T12:24:42.272Z,60.49
2019-03-11T12:25:42.174Z,60.17
2019-03-11T12:26:42.166Z,59.66
2019-03-11T12:27:52.737Z,59.66
2019-03-11T12:28:43.162Z,60.38
2019-03-11T12:29:42.131Z,60.28
2019-03-11T12:30:42.125Z,60.38
2019-03-11T12:31:42.128Z,59.77
2019-03-11T12:32:42.098Z,60.49
2019-03-11T12:33:42.125Z,59.77
2019-03-11T12:34:42.087Z,60.17
2019-03-11T12:35:42.092Z,60.07
2019-03-11T12:36:42.078Z,59.97
2019-03-11T12:37:42.131Z,59.94
2019-03-11T12:38:42.032Z,60.46
2019-03-11T12:39:42.044Z,59.53
2019-03-11T12:40:42.128Z,59.63
2019-03-11T12:41:42.000Z,60.77
2019-03-11T12:42:42.021Z,60.49
2019-03-11T12:43:42.006Z,60.77
2019-03-11T12:44:42.015Z,60.56
2019-03-11T12:45:41.956Z,60.25
2019-03-11T12:46:41.975Z,60.12
2019-03-11T12:47:41.932Z,59.30
2019-03-11T12:48:41.954Z,60.12
2019-03-11T12:49:41.918Z,60.22
2019-03-11T12:50:41.903Z,60.33
2019-03-11T12:51:49.623Z,60.05
2019-03-11T12:52:43.509Z,61.59
2019-03-11T12:53:41.876Z,60.25